Suzuka, Japan
Current Conditions -  °F | °C
As of 10:00 AM on Monday 22 Dec 2014 (Local Time) from RJGG Reporting Station
Few Clouds Few Clouds  
Wind Chill: 31°   Ceiling: Unl
Heat Index: 41°   Visibility: 6mi
Dew Point: 27°   Wind: 24mph
Humidity: 57%   Direction: 270°W
Pressure: 30.03"   Gusts: NA
Location:  34.88°N, 136.58°E
Report Text: RJGG 220100Z 27021KT 9999 FEW030 05/M03 Q1017 NOSIG
Loading
Personal Weather Stations






























Interactive Weather Map New forecast layout! Learn more

10-Day Weather Forecast

Advertisements
Track Severe Weather on mobile